Time;durP1;ratioP1;P1;durP2;ratioP2;P2;SDS_P1;SDS_P2;PMS_P1;PMS_P2;Temp;Humidity;BMP_temperature;BMP_pressure;BME280_temperature;BME280_humidity;BME280_pressure;Samples;Min_cycle;Max_cycle;Signal;HPM_P1;HPM_P2
2023/10/31 00:01:55;;;;;;;0.28;0.28;;;14.10;99.90;;;;;;7395829;19;20131;-81
2023/10/31 00:04:21;;;;;;;0.30;0.30;;;14.10;99.90;;;;;;7395611;19;20146;-81
2023/10/31 00:06:47;;;;;;;0.30;0.30;;;14.10;99.90;;;;;;7394605;19;20138;-80
2023/10/31 00:09:13;;;;;;;0.20;0.20;;;14.00;99.90;;;;;;7395708;19;20336;-82
2023/10/31 00:11:41;;;;;;;0.15;0.15;;;14.10;99.90;;;;;;7395257;19;20231;-80
2023/10/31 00:14:08;;;;;;;0.20;0.20;;;13.90;99.90;;;;;;7395426;19;20141;-81
2023/10/31 00:16:34;;;;;;;0.30;0.20;;;13.90;99.90;;;;;;7393686;19;20126;-81
2023/10/31 00:18:59;;;;;;;0.20;0.20;;;14.00;99.90;;;;;;7396126;19;20162;-81
2023/10/31 00:21:25;;;;;;;0.20;0.20;;;14.10;99.90;;;;;;7394723;19;20166;-80
2023/10/31 00:23:51;;;;;;;0.20;0.20;;;14.10;99.90;;;;;;7396521;19;20131;-82
2023/10/31 00:26:17;;;;;;;0.63;0.63;;;14.10;99.90;;;;;;7394417;19;20443;-80
2023/10/31 00:28:42;;;;;;;0.30;0.17;;;14.10;99.90;;;;;;7394762;19;20475;-81
2023/10/31 00:31:11;;;;;;;0.25;0.25;;;14.10;99.90;;;;;;7392155;19;20215;-81
2023/10/31 00:33:37;;;;;;;0.10;0.10;;;14.00;99.90;;;;;;7395672;19;20571;-82
2023/10/31 00:36:03;;;;;;;0.20;0.20;;;14.00;99.90;;;;;;7394798;19;20214;-82
2023/10/31 00:38:29;;;;;;;0.20;0.20;;;13.80;99.90;;;;;;7395466;19;20161;-82
2023/10/31 00:40:55;;;;;;;0.15;0.15;;;13.90;99.90;;;;;;7394335;19;20148;-82
2023/10/31 00:43:21;;;;;;;0.20;0.20;;;14.00;99.90;;;;;;7395228;19;20147;-82
2023/10/31 00:45:47;;;;;;;0.28;0.28;;;14.10;99.90;;;;;;7395470;19;20142;-82
2023/10/31 00:48:13;;;;;;;0.17;0.17;;;14.20;99.90;;;;;;7396130;19;20142;-83
2023/10/31 00:50:38;;;;;;;0.20;0.20;;;13.90;99.90;;;;;;7394842;19;20591;-81
2023/10/31 00:53:04;;;;;;;0.50;0.30;;;13.90;99.90;;;;;;7395175;19;20178;-81
2023/10/31 00:55:30;;;;;;;0.20;0.20;;;14.00;99.90;;;;;;7394853;19;20194;-81
2023/10/31 00:57:56;;;;;;;0.20;0.20;;;13.80;99.90;;;;;;7393467;19;20171;-83
2023/10/31 01:00:21;;;;;;;0.13;0.13;;;13.70;99.90;;;;;;7393769;19;20166;-82
2023/10/31 01:02:47;;;;;;;0.20;0.20;;;13.50;99.90;;;;;;7395140;19;20146;-85
2023/10/31 01:05:13;;;;;;;0.20;0.20;;;13.50;99.90;;;;;;7394719;19;20590;-84
2023/10/31 01:07:41;;;;;;;0.20;0.20;;;13.40;99.90;;;;;;7396262;19;20146;-83
2023/10/31 01:10:07;;;;;;;0.20;0.20;;;13.70;99.90;;;;;;7394963;19;20137;-85
2023/10/31 01:12:34;;;;;;;0.22;0.22;;;13.80;99.90;;;;;;7395519;19;20143;-85
2023/10/31 01:14:59;;;;;;;4.88;3.35;;;13.90;99.90;;;;;;7393940;19;20147;-83
2023/10/31 01:17:25;;;;;;;1.13;1.02;;;13.90;99.90;;;;;;7393739;19;20170;-84
2023/10/31 01:19:51;;;;;;;0.57;0.57;;;13.60;99.90;;;;;;7393073;19;20217;-84
2023/10/31 01:22:17;;;;;;;0.30;0.30;;;13.70;99.90;;;;;;7393525;19;20147;-84
2023/10/31 01:24:43;;;;;;;0.30;0.30;;;13.90;99.90;;;;;;7393670;19;20137;-82
2023/10/31 01:27:08;;;;;;;2.38;0.70;;;13.90;99.90;;;;;;7392636;19;20139;-82
2023/10/31 01:29:34;;;;;;;0.30;0.20;;;13.90;99.90;;;;;;7389525;19;20190;-83
2023/10/31 01:32:00;;;;;;;0.40;0.40;;;13.80;99.90;;;;;;7395416;19;20141;-87
2023/10/31 01:34:26;;;;;;;1.50;1.10;;;13.60;99.90;;;;;;7394602;19;20131;-83
2023/10/31 01:36:51;;;;;;;2.35;1.35;;;13.70;99.90;;;;;;7393188;19;20155;-82
2023/10/31 01:39:18;;;;;;;1.90;0.83;;;13.80;99.90;;;;;;7394461;19;20138;-82
2023/10/31 01:41:44;;;;;;;2.17;0.98;;;13.80;99.90;;;;;;7397273;19;20147;-83
2023/10/31 01:44:10;;;;;;;0.77;0.60;;;13.80;99.90;;;;;;7402824;19;20225;-82
2023/10/31 01:46:36;;;;;;;0.57;0.40;;;13.80;99.90;;;;;;7401459;19;20119;-82
2023/10/31 01:49:03;;;;;;;0.70;0.50;;;13.50;99.90;;;;;;7400866;19;20126;-82
2023/10/31 01:51:29;;;;;;;0.30;0.30;;;13.60;99.90;;;;;;7400936;19;20157;-81
2023/10/31 01:53:56;;;;;;;0.30;0.30;;;13.70;99.90;;;;;;7400815;19;21738;-82
2023/10/31 01:56:22;;;;;;;0.30;0.20;;;13.80;99.90;;;;;;7400439;19;20219;-82
2023/10/31 01:58:49;;;;;;;0.50;0.50;;;13.70;99.90;;;;;;7400576;19;20146;-82
2023/10/31 02:01:15;;;;;;;0.13;0.13;;;13.50;99.90;;;;;;7402209;19;20422;-82
2023/10/31 02:03:41;;;;;;;0.30;0.30;;;13.40;99.90;;;;;;7400772;19;20171;-83
2023/10/31 02:06:07;;;;;;;0.20;0.20;;;13.50;99.90;;;;;;7398593;19;20138;-82
2023/10/31 02:08:33;;;;;;;0.30;0.30;;;13.50;99.90;;;;;;7399280;19;20154;-83
2023/10/31 02:10:59;;;;;;;0.20;0.20;;;13.50;99.90;;;;;;7399419;19;20209;-83
2023/10/31 02:13:25;;;;;;;0.23;0.20;;;13.60;99.90;;;;;;7399300;19;20146;-82
2023/10/31 02:15:51;;;;;;;0.63;0.50;;;13.60;99.90;;;;;;7399130;19;20270;-82
2023/10/31 02:18:17;;;;;;;0.53;0.40;;;13.70;99.90;;;;;;7399236;19;20552;-83
2023/10/31 02:20:44;;;;;;;0.20;0.20;;;13.70;99.90;;;;;;7399146;19;20119;-83
2023/10/31 02:23:09;;;;;;;0.17;0.17;;;13.50;99.90;;;;;;7399112;19;20585;-83
2023/10/31 02:25:37;;;;;;;0.23;0.23;;;13.60;99.90;;;;;;7399556;19;20131;-83
2023/10/31 02:28:03;;;;;;;0.20;0.20;;;13.60;99.90;;;;;;7398785;19;20131;-82
2023/10/31 02:30:28;;;;;;;0.30;0.27;;;13.70;99.90;;;;;;7398135;19;20185;-81
2023/10/31 02:32:54;;;;;;;0.40;0.40;;;13.70;99.90;;;;;;7398642;19;20157;-83
2023/10/31 02:35:20;;;;;;;0.28;0.22;;;13.80;99.90;;;;;;7396790;19;20138;-83
2023/10/31 02:37:47;;;;;;;0.15;0.15;;;13.60;99.90;;;;;;7397265;19;20452;-83
2023/10/31 02:40:13;;;;;;;0.10;0.10;;;13.50;99.90;;;;;;7400225;19;20183;-82
2023/10/31 02:42:39;;;;;;;0.30;0.30;;;13.60;99.90;;;;;;7398409;19;20154;-82
2023/10/31 02:45:05;;;;;;;0.30;0.30;;;13.60;99.90;;;;;;7397828;19;20138;-84
2023/10/31 02:47:31;;;;;;;0.10;0.10;;;13.70;99.90;;;;;;7394638;19;20483;-83
2023/10/31 02:49:57;;;;;;;0.20;0.20;;;13.60;99.90;;;;;;7399555;19;20202;-83
2023/10/31 02:52:23;;;;;;;0.10;0.10;;;13.70;99.90;;;;;;7396760;19;20138;-81
2023/10/31 02:54:49;;;;;;;0.47;0.27;;;13.60;99.90;;;;;;7397387;19;20171;-80
2023/10/31 02:57:16;;;;;;;0.20;0.20;;;13.60;99.90;;;;;;7394666;19;20158;-80
2023/10/31 02:59:42;;;;;;;0.20;0.20;;;13.50;99.90;;;;;;7399165;19;20131;-83
2023/10/31 03:02:08;;;;;;;0.20;0.20;;;13.60;99.90;;;;;;7398295;19;20270;-82
2023/10/31 03:04:33;;;;;;;0.20;0.20;;;13.60;99.90;;;;;;7393611;19;20177;-82
2023/10/31 03:06:59;;;;;;;0.33;0.27;;;13.60;99.90;;;;;;7397098;19;20138;-81
2023/10/31 03:09:25;;;;;;;0.40;0.40;;;13.50;99.90;;;;;;7398779;19;20153;-82
2023/10/31 03:11:51;;;;;;;0.20;0.20;;;13.20;99.90;;;;;;7396117;19;20140;-82
2023/10/31 03:14:16;;;;;;;0.77;0.20;;;13.30;99.90;;;;;;7398585;19;20130;-83
2023/10/31 03:16:42;;;;;;;0.40;0.30;;;13.30;99.90;;;;;;7394571;19;20463;-84
2023/10/31 03:19:08;;;;;;;0.20;0.20;;;13.40;99.90;;;;;;7397348;19;20146;-83
2023/10/31 03:21:34;;;;;;;0.25;0.25;;;13.50;99.90;;;;;;7396183;19;20741;-83
2023/10/31 03:23:59;;;;;;;0.67;0.30;;;13.50;99.90;;;;;;7397424;19;20159;-82
2023/10/31 03:26:25;;;;;;;0.20;0.20;;;13.50;99.90;;;;;;7396242;19;20141;-83
2023/10/31 03:28:56;;;;;;;0.37;0.30;;;13.50;99.90;;;;;;7395665;19;20590;-83
2023/10/31 03:31:23;;;;;;;0.17;0.17;;;13.50;99.90;;;;;;7394426;19;20185;-82
2023/10/31 03:33:49;;;;;;;0.20;0.20;;;13.60;99.90;;;;;;7395630;19;20150;-82
2023/10/31 03:36:14;;;;;;;0.20;0.20;;;13.50;99.90;;;;;;7394846;19;20151;-81
2023/10/31 03:38:40;;;;;;;0.30;0.30;;;13.60;99.90;;;;;;7399579;19;20142;-82
2023/10/31 03:41:06;;;;;;;0.20;0.20;;;13.60;99.90;;;;;;7397585;19;20155;-82
2023/10/31 03:43:32;;;;;;;0.30;0.30;;;13.50;99.90;;;;;;7396512;19;20619;-82
2023/10/31 03:45:58;;;;;;;0.20;0.20;;;13.60;99.90;;;;;;7395456;19;20627;-83
2023/10/31 03:48:24;;;;;;;0.20;0.20;;;13.40;99.90;;;;;;7397065;19;20566;-82
2023/10/31 03:50:51;;;;;;;0.30;0.30;;;13.50;99.90;;;;;;7395555;19;20138;-82
2023/10/31 03:53:17;;;;;;;0.20;0.20;;;13.50;99.90;;;;;;7398274;19;20146;-81
2023/10/31 03:55:42;;;;;;;0.20;0.20;;;13.50;99.90;;;;;;7396019;19;20134;-83
2023/10/31 03:58:08;;;;;;;0.63;0.33;;;13.50;99.90;;;;;;7395033;19;20139;-82
2023/10/31 04:00:34;;;;;;;0.20;0.20;;;13.40;99.90;;;;;;7396776;19;20161;-82
2023/10/31 04:02:59;;;;;;;0.30;0.30;;;13.50;99.90;;;;;;7398043;19;20160;-83
2023/10/31 04:05:25;;;;;;;0.20;0.20;;;13.50;99.90;;;;;;7392837;19;20151;-82
2023/10/31 04:07:51;;;;;;;1.60;0.40;;;13.40;99.90;;;;;;7396602;19;20639;-83
2023/10/31 04:10:18;;;;;;;0.30;0.30;;;13.40;99.90;;;;;;7396854;19;20527;-81
2023/10/31 04:12:44;;;;;;;0.52;0.40;;;13.30;99.90;;;;;;7394258;19;20163;-82
2023/10/31 04:15:10;;;;;;;0.20;0.20;;;13.20;99.90;;;;;;7398246;19;20645;-82
2023/10/31 04:17:36;;;;;;;0.25;0.25;;;13.30;99.90;;;;;;7394218;19;20139;-82
2023/10/31 04:20:02;;;;;;;0.30;0.30;;;13.40;99.90;;;;;;7395372;19;20155;-81
2023/10/31 04:22:28;;;;;;;0.40;0.40;;;13.40;99.90;;;;;;7396018;19;20154;-83
2023/10/31 04:24:54;;;;;;;0.20;0.20;;;13.40;99.90;;;;;;7396523;19;20143;-82
2023/10/31 04:27:19;;;;;;;0.30;0.30;;;13.40;99.90;;;;;;7395378;19;20147;-82
2023/10/31 04:29:45;;;;;;;0.30;0.30;;;13.30;99.90;;;;;;7395643;19;20174;-82
2023/10/31 04:32:11;;;;;;;0.20;0.20;;;13.40;99.90;;;;;;7396188;19;20198;-82
2023/10/31 04:34:37;;;;;;;0.20;0.20;;;13.40;99.90;;;;;;7394137;19;20269;-82
2023/10/31 04:37:03;;;;;;;0.30;0.30;;;13.30;99.90;;;;;;7392162;19;20640;-81
2023/10/31 04:39:29;;;;;;;0.20;0.20;;;13.10;99.90;;;;;;7396534;19;20243;-81
2023/10/31 04:41:55;;;;;;;0.20;0.20;;;13.10;99.90;;;;;;7396771;19;20150;-82
2023/10/31 04:44:20;;;;;;;1.25;0.47;;;13.20;99.90;;;;;;7395467;19;20143;-82
2023/10/31 04:46:47;;;;;;;0.30;0.30;;;13.30;99.90;;;;;;7397400;19;20146;-82
2023/10/31 04:49:13;;;;;;;0.30;0.30;;;13.30;99.90;;;;;;7394796;19;20135;-81
2023/10/31 04:51:39;;;;;;;0.20;0.20;;;13.40;99.90;;;;;;7394281;19;20171;-82
2023/10/31 04:54:05;;;;;;;0.30;0.30;;;13.40;99.90;;;;;;7396005;19;20173;-81
2023/10/31 04:56:31;;;;;;;0.32;0.32;;;13.40;99.90;;;;;;7394187;19;20208;-82
2023/10/31 04:58:57;;;;;;;1.03;0.43;;;13.40;99.90;;;;;;7394372;19;20146;-81
2023/10/31 05:01:23;;;;;;;0.50;0.30;;;13.20;99.90;;;;;;7396325;19;20139;-82
2023/10/31 05:03:49;;;;;;;0.20;0.20;;;13.20;99.90;;;;;;7395521;19;20134;-82
2023/10/31 05:06:22;;;;;;;0.15;0.15;;;13.40;99.90;;;;;;7392770;19;20162;-82
2023/10/31 05:08:49;;;;;;;0.40;0.40;;;13.30;99.90;;;;;;7394122;19;20138;-82
2023/10/31 05:11:18;;;;;;;0.20;0.20;;;13.30;99.90;;;;;;7392593;19;20615;-82
2023/10/31 05:13:44;;;;;;;0.30;0.30;;;13.20;99.90;;;;;;7393539;19;20231;-80
2023/10/31 05:16:11;;;;;;;0.20;0.20;;;13.20;99.90;;;;;;7391859;19;20139;-83
2023/10/31 05:18:38;;;;;;;0.47;0.30;;;13.30;99.90;;;;;;7394960;19;20563;-81
2023/10/31 05:21:05;;;;;;;0.30;0.30;;;13.20;99.90;;;;;;7392371;19;20172;-83
2023/10/31 05:23:31;;;;;;;0.30;0.30;;;13.20;99.90;;;;;;7392822;19;20154;-81
2023/10/31 05:25:57;;;;;;;0.30;0.30;;;13.00;99.90;;;;;;7392006;19;20167;-82
2023/10/31 05:28:23;;;;;;;0.30;0.30;;;13.00;99.90;;;;;;7393024;19;20214;-83
2023/10/31 05:30:49;;;;;;;1.95;0.75;;;13.10;99.90;;;;;;7391872;19;20173;-82
2023/10/31 05:33:16;;;;;;;0.30;0.30;;;13.20;99.90;;;;;;7394099;19;20492;-82
2023/10/31 05:35:42;;;;;;;0.75;0.50;;;13.20;99.90;;;;;;7392438;19;20609;-82
2023/10/31 05:38:08;;;;;;;0.30;0.30;;;12.90;99.90;;;;;;7391057;19;20173;-83
2023/10/31 05:40:37;;;;;;;0.38;0.30;;;13.00;99.90;;;;;;7391469;19;20262;-81
2023/10/31 05:43:03;;;;;;;0.30;0.30;;;13.00;99.90;;;;;;7393648;19;20138;-82
2023/10/31 05:45:30;;;;;;;0.30;0.30;;;13.00;99.90;;;;;;7392288;19;20171;-83
2023/10/31 05:47:56;;;;;;;0.40;0.40;;;13.00;99.90;;;;;;7392597;19;20561;-82
2023/10/31 05:50:21;;;;;;;0.30;0.30;;;12.90;99.90;;;;;;7391557;19;20135;-82
2023/10/31 05:52:47;;;;;;;0.30;0.30;;;12.80;99.90;;;;;;7391032;19;20153;-82
2023/10/31 05:55:13;;;;;;;0.30;0.30;;;12.90;99.90;;;;;;7393008;19;20134;-81
2023/10/31 05:57:39;;;;;;;0.30;0.30;;;13.00;99.90;;;;;;7390021;19;20145;-82
2023/10/31 06:00:08;;;;;;;0.30;0.30;;;12.80;99.90;;;;;;7393058;19;20149;-83
2023/10/31 06:02:34;;;;;;;0.20;0.20;;;12.80;99.90;;;;;;7393546;19;20262;-83
2023/10/31 06:05:00;;;;;;;0.27;0.27;;;13.00;99.90;;;;;;7391713;19;20443;-83
2023/10/31 06:07:26;;;;;;;0.20;0.20;;;13.00;99.90;;;;;;7391355;19;20160;-81
2023/10/31 06:09:51;;;;;;;0.30;0.30;;;13.00;99.90;;;;;;7392137;19;20174;-82
2023/10/31 06:12:17;;;;;;;0.20;0.20;;;12.80;99.90;;;;;;7391143;19;20498;-81
2023/10/31 06:14:43;;;;;;;0.20;0.20;;;12.70;99.90;;;;;;7390673;19;20151;-81
2023/10/31 06:17:09;;;;;;;0.20;0.20;;;12.90;99.90;;;;;;7388257;19;20150;-82
2023/10/31 06:19:36;;;;;;;0.30;0.30;;;12.80;99.90;;;;;;7390887;19;20150;-81
2023/10/31 06:22:02;;;;;;;0.30;0.30;;;12.90;99.90;;;;;;7389401;19;20169;-82
2023/10/31 06:24:28;;;;;;;0.20;0.20;;;12.80;99.90;;;;;;7389481;19;20173;-82
2023/10/31 06:26:54;;;;;;;0.80;0.30;;;12.70;99.90;;;;;;7388143;19;20139;-81
2023/10/31 06:29:19;;;;;;;0.10;0.10;;;12.60;99.90;;;;;;7398155;19;20253;-82
2023/10/31 06:31:45;;;;;;;0.27;0.27;;;12.80;99.90;;;;;;7398411;19;20159;-85
2023/10/31 06:34:11;;;;;;;0.23;0.20;;;12.60;99.90;;;;;;7398672;19;20151;-79
2023/10/31 06:36:36;;;;;;;0.20;0.20;;;12.70;99.90;;;;;;7395727;19;20154;-80
2023/10/31 06:39:02;;;;;;;0.30;0.30;;;12.90;99.90;;;;;;7397897;19;20130;-79
2023/10/31 06:41:28;;;;;;;0.32;0.32;;;13.00;99.90;;;;;;7395719;19;20154;-79
2023/10/31 06:43:54;;;;;;;4.23;0.50;;;13.10;99.90;;;;;;7395430;19;20142;-79
2023/10/31 06:46:20;;;;;;;0.40;0.30;;;13.10;99.90;;;;;;7394603;19;20591;-80
2023/10/31 06:48:45;;;;;;;0.20;0.20;;;13.10;99.90;;;;;;7397151;19;20161;-82
2023/10/31 06:51:11;;;;;;;0.43;0.43;;;13.10;99.90;;;;;;7394973;19;20138;-81
2023/10/31 06:53:37;;;;;;;0.20;0.20;;;13.10;99.90;;;;;;7396517;19;20162;-81
2023/10/31 06:56:06;;;;;;;0.20;0.20;;;13.30;99.90;;;;;;7393871;19;20217;-81
2023/10/31 06:58:32;;;;;;;0.40;0.40;;;13.20;99.90;;;;;;7395254;19;20137;-80
2023/10/31 07:00:59;;;;;;;0.50;0.35;;;13.10;99.90;;;;;;7397366;19;20198;-82
2023/10/31 07:03:25;;;;;;;0.22;0.22;;;13.10;99.90;;;;;;7396186;19;20131;-81
2023/10/31 07:05:51;;;;;;;0.37;0.37;;;13.10;99.90;;;;;;7395870;19;20159;-81
2023/10/31 07:08:17;;;;;;;0.27;0.27;;;13.20;99.90;;;;;;7395433;19;20247;-81
2023/10/31 07:10:45;;;;;;;0.20;0.20;;;13.20;99.90;;;;;;7396515;19;20162;-79
2023/10/31 07:13:14;;;;;;;0.53;0.40;;;13.10;99.90;;;;;;7396106;19;20543;-82
2023/10/31 07:15:39;;;;;;;0.27;0.27;;;13.10;99.90;;;;;;7396640;19;20138;-82
2023/10/31 07:18:09;;;;;;;0.30;0.30;;;13.20;99.90;;;;;;7394243;19;20175;-83
2023/10/31 07:20:34;;;;;;;0.30;0.30;;;13.20;99.90;;;;;;7397200;19;20154;-80
2023/10/31 07:23:00;;;;;;;0.20;0.20;;;13.10;99.90;;;;;;7397836;19;20636;-82
2023/10/31 07:25:26;;;;;;;0.47;0.47;;;13.00;99.90;;;;;;7397273;19;20485;-81
2023/10/31 07:27:52;;;;;;;1.03;0.63;;;13.10;99.90;;;;;;7396922;19;20154;-82
2023/10/31 07:30:18;;;;;;;0.67;0.30;;;13.30;99.90;;;;;;7394731;19;20189;-81
2023/10/31 07:32:43;;;;;;;0.33;0.33;;;13.30;99.90;;;;;;7395986;19;20153;-81
2023/10/31 07:35:09;;;;;;;0.40;0.37;;;13.30;99.90;;;;;;7396206;19;21022;-82
2023/10/31 07:37:36;;;;;;;0.50;0.50;;;13.40;99.90;;;;;;7394147;19;20881;-82
2023/10/31 07:40:04;;;;;;;0.40;0.40;;;13.40;99.90;;;;;;7397652;19;20131;-82
2023/10/31 07:42:30;;;;;;;0.35;0.35;;;13.40;99.90;;;;;;7395029;19;20143;-82
2023/10/31 07:44:56;;;;;;;0.57;0.30;;;13.30;99.90;;;;;;7401326;19;20143;-82
2023/10/31 07:47:21;;;;;;;0.63;0.57;;;13.40;99.90;;;;;;7397684;19;20190;-82
2023/10/31 07:49:48;;;;;;;0.50;0.50;;;13.40;99.90;;;;;;7397357;19;20210;-83
2023/10/31 07:52:14;;;;;;;0.27;0.27;;;13.60;99.90;;;;;;7394955;19;20161;-82
2023/10/31 07:54:43;;;;;;;0.40;0.40;;;13.40;99.90;;;;;;7396749;19;20139;-83
2023/10/31 07:57:10;;;;;;;0.20;0.20;;;13.30;99.90;;;;;;7392601;19;20151;-81
2023/10/31 07:59:36;;;;;;;0.52;0.30;;;13.40;99.90;;;;;;7400039;19;20910;-81
2023/10/31 08:02:02;;;;;;;0.30;0.30;;;13.50;99.90;;;;;;7402501;19;20903;-84
2023/10/31 08:04:29;;;;;;;0.30;0.30;;;13.40;99.90;;;;;;7395427;19;20157;-83
2023/10/31 08:06:56;;;;;;;0.20;0.20;;;13.50;99.90;;;;;;7395521;19;20167;-84
2023/10/31 08:09:25;;;;;;;0.40;0.40;;;13.70;99.90;;;;;;7394736;19;20143;-83
2023/10/31 08:11:51;;;;;;;0.50;0.30;;;13.60;99.90;;;;;;7394673;19;20138;-83
2023/10/31 08:14:17;;;;;;;0.30;0.30;;;13.70;99.90;;;;;;7395866;19;20153;-82
2023/10/31 08:16:44;;;;;;;0.87;0.60;;;13.70;99.90;;;;;;7393509;19;20189;-81
2023/10/31 08:19:12;;;;;;;0.40;0.40;;;13.80;99.90;;;;;;7395746;19;20172;-81
2023/10/31 08:21:38;;;;;;;0.47;0.40;;;13.80;99.90;;;;;;7395368;19;20617;-81
2023/10/31 08:24:05;;;;;;;0.47;0.47;;;14.00;99.90;;;;;;7400076;19;20135;-86
2023/10/31 08:26:31;;;;;;;0.70;0.50;;;13.70;99.90;;;;;;7398122;19;20135;-82
2023/10/31 08:28:57;;;;;;;0.87;0.40;;;13.80;99.90;;;;;;7394797;19;20146;-82
2023/10/31 08:31:23;;;;;;;0.30;0.30;;;13.80;99.90;;;;;;7392591;19;20170;-82
2023/10/31 08:33:49;;;;;;;0.80;0.60;;;13.80;99.90;;;;;;7393784;19;20487;-81
2023/10/31 08:36:15;;;;;;;0.28;0.28;;;13.80;99.90;;;;;;7395092;19;20142;-85
2023/10/31 08:38:40;;;;;;;1.13;0.60;;;13.80;99.90;;;;;;7395573;19;20663;-79
2023/10/31 08:41:06;;;;;;;0.30;0.30;;;13.90;99.90;;;;;;7393370;19;20166;-81
2023/10/31 08:43:32;;;;;;;0.35;0.35;;;13.80;99.90;;;;;;7392998;19;20134;-82
2023/10/31 08:45:58;;;;;;;0.30;0.30;;;13.60;99.90;;;;;;7392080;19;20170;-83
2023/10/31 08:48:24;;;;;;;0.20;0.20;;;13.60;99.90;;;;;;7392688;19;20149;-82
2023/10/31 08:50:50;;;;;;;0.20;0.20;;;13.80;99.90;;;;;;7392103;19;20135;-84
2023/10/31 08:53:16;;;;;;;0.73;0.50;;;13.90;99.90;;;;;;7396021;19;20610;-81
2023/10/31 08:55:45;;;;;;;0.47;0.30;;;13.90;99.90;;;;;;7391971;19;20141;-82
2023/10/31 08:58:13;;;;;;;1.07;0.70;;;13.80;99.90;;;;;;7390282;19;20143;-81
2023/10/31 09:00:40;;;;;;;0.93;0.28;;;13.90;99.90;;;;;;7391100;19;20127;-81
2023/10/31 09:03:07;;;;;;;0.47;0.40;;;14.00;99.90;;;;;;7392622;19;20160;-81
2023/10/31 09:05:33;;;;;;;0.50;0.40;;;14.10;99.90;;;;;;7391411;19;20139;-81
2023/10/31 09:07:59;;;;;;;0.28;0.28;;;13.90;99.90;;;;;;7393999;19;20141;-81
2023/10/31 09:10:25;;;;;;;0.80;0.43;;;13.80;99.90;;;;;;7391865;19;20486;-83
2023/10/31 09:12:51;;;;;;;1.63;0.82;;;13.90;99.90;;;;;;7391042;19;20131;-82
2023/10/31 09:15:18;;;;;;;1.00;0.80;;;14.00;99.90;;;;;;7392128;19;20151;-83
2023/10/31 09:17:44;;;;;;;0.50;0.50;;;14.20;99.90;;;;;;7392195;19;20168;-82
2023/10/31 09:20:11;;;;;;;0.30;0.30;;;14.20;99.90;;;;;;7393147;19;20563;-83
2023/10/31 09:22:37;;;;;;;0.80;0.60;;;14.30;99.90;;;;;;7390938;19;20166;-82
2023/10/31 09:25:03;;;;;;;3.38;0.52;;;14.40;99.90;;;;;;7391893;19;20165;-81
2023/10/31 09:27:31;;;;;;;0.30;0.30;;;14.30;99.90;;;;;;7389269;19;20143;-81
2023/10/31 09:29:57;;;;;;;0.82;0.47;;;14.40;99.90;;;;;;7389417;19;20193;-82
2023/10/31 09:32:22;;;;;;;1.65;0.50;;;14.40;99.90;;;;;;7391189;19;20163;-81
2023/10/31 09:34:49;;;;;;;1.67;0.80;;;14.40;99.90;;;;;;7390682;19;20202;-80
2023/10/31 09:37:14;;;;;;;0.82;0.45;;;14.50;99.90;;;;;;7392188;19;20675;-83
2023/10/31 09:39:42;;;;;;;0.30;0.30;;;14.50;99.90;;;;;;7391564;19;20150;-81
2023/10/31 09:42:08;;;;;;;1.10;0.60;;;14.50;99.90;;;;;;7390297;19;20150;-81
2023/10/31 09:44:34;;;;;;;1.65;0.60;;;14.60;99.90;;;;;;7391949;19;20134;-83
2023/10/31 09:47:01;;;;;;;1.23;0.50;;;14.80;99.90;;;;;;7391427;19;20139;-84
2023/10/31 09:49:28;;;;;;;0.65;0.63;;;14.70;99.90;;;;;;7391496;19;20509;-81
2023/10/31 09:51:55;;;;;;;0.40;0.40;;;14.60;99.90;;;;;;7391012;19;20159;-83
2023/10/31 09:54:22;;;;;;;0.40;0.40;;;14.70;99.90;;;;;;7390167;19;20138;-83
2023/10/31 09:56:48;;;;;;;0.73;0.40;;;14.80;99.90;;;;;;7390100;19;20135;-85
2023/10/31 09:59:15;;;;;;;0.30;0.30;;;14.70;99.90;;;;;;7396926;19;20127;-81
2023/10/31 10:01:41;;;;;;;0.50;0.50;;;14.80;99.90;;;;;;7391181;19;20138;-83
2023/10/31 10:04:07;;;;;;;1.17;0.77;;;14.80;99.90;;;;;;7398507;19;20131;-81
2023/10/31 10:06:34;;;;;;;0.50;0.50;;;14.80;99.90;;;;;;7399392;19;20169;-83
2023/10/31 10:09:02;;;;;;;0.22;0.22;;;14.70;99.90;;;;;;7399353;19;20138;-83
2023/10/31 10:11:28;;;;;;;0.52;0.52;;;14.70;99.90;;;;;;7398867;19;20147;-82
2023/10/31 10:13:54;;;;;;;2.03;1.40;;;14.60;99.90;;;;;;7398590;19;20579;-83
2023/10/31 10:16:33;;;;;;;0.50;0.50;;;14.40;99.90;;;;;;7397961;19;20170;-84
2023/10/31 10:19:19;;;;;;;0.30;0.30;;;14.60;99.90;;;;;;7397318;19;20130;-85
2023/10/31 10:21:53;;;;;;;0.90;0.82;;;14.50;99.90;;;;;;7405588;19;20146;-84
2023/10/31 10:24:19;;;;;;;0.40;0.30;;;14.20;99.90;;;;;;7398149;19;20149;-80
2023/10/31 10:26:46;;;;;;;2.20;1.30;;;14.30;99.90;;;;;;7403880;19;20730;-85
2023/10/31 10:29:12;;;;;;;0.55;0.50;;;14.50;99.90;;;;;;7398665;19;20150;-81
2023/10/31 10:31:39;;;;;;;2.47;1.75;;;14.50;99.90;;;;;;7393967;19;20154;-86
2023/10/31 10:34:05;;;;;;;1.73;0.68;;;14.50;99.90;;;;;;7396590;19;20482;-80
2023/10/31 10:36:32;;;;;;;1.38;0.80;;;14.60;99.90;;;;;;7395306;19;20230;-81
2023/10/31 10:38:59;;;;;;;2.78;1.50;;;14.70;99.90;;;;;;7399523;19;20163;-82
2023/10/31 10:41:26;;;;;;;1.02;0.80;;;14.70;99.90;;;;;;7396743;19;20163;-81
2023/10/31 10:43:58;;;;;;;10.80;5.72;;;14.40;99.90;;;;;;7401847;19;20718;-81
2023/10/31 10:46:28;;;;;;;0.85;0.60;;;14.40;99.90;;;;;;7398231;19;20880;-82
2023/10/31 10:48:57;;;;;;;2.10;0.67;;;14.50;99.90;;;;;;7398183;19;20139;-82
2023/10/31 10:51:43;;;;;;;1.00;0.30;;;14.60;99.90;;;;;;7398698;19;20134;-81
2023/10/31 10:54:23;;;;;;;0.77;0.60;;;14.50;99.90;;;;;;7401964;19;20151;-82
2023/10/31 10:56:58;;;;;;;0.25;0.25;;;14.50;99.90;;;;;;7400477;19;20271;-84
2023/10/31 10:59:38;;;;;;;0.40;0.40;;;14.40;99.90;;;;;;7401192;19;20130;-84
2023/10/31 11:02:07;;;;;;;0.85;0.50;;;14.30;99.90;;;;;;7401957;19;20146;-84
2023/10/31 11:04:35;;;;;;;0.40;0.40;;;14.50;99.90;;;;;;7398642;19;20142;-82
2023/10/31 11:07:02;;;;;;;0.30;0.30;;;14.60;99.90;;;;;;7398539;19;20145;-83
2023/10/31 11:09:30;;;;;;;0.30;0.28;;;14.70;99.90;;;;;;7400168;19;20154;-81
2023/10/31 11:11:57;;;;;;;0.40;0.40;;;14.50;99.90;;;;;;7397879;19;20146;-83
2023/10/31 11:14:25;;;;;;;0.40;0.40;;;14.30;99.90;;;;;;7400826;19;20611;-82
2023/10/31 11:16:59;;;;;;;2.13;0.45;;;14.50;99.90;;;;;;7396649;19;20671;-82
2023/10/31 11:19:27;;;;;;;0.40;0.40;;;14.70;99.90;;;;;;7398011;19;20220;-82
2023/10/31 11:22:05;;;;;;;0.30;0.30;;;14.80;99.90;;;;;;7399351;19;21009;-81
2023/10/31 11:24:34;;;;;;;0.70;0.70;;;14.90;99.90;;;;;;7396410;19;20138;-80
2023/10/31 11:27:05;;;;;;;0.90;0.70;;;14.80;99.90;;;;;;7398395;19;20142;-81
2023/10/31 11:29:32;;;;;;;0.90;0.40;;;14.80;99.90;;;;;;7395796;19;20182;-82
2023/10/31 11:31:59;;;;;;;0.57;0.57;;;14.90;99.90;;;;;;7398898;19;20127;-81
2023/10/31 11:34:31;;;;;;;3.17;2.22;;;15.00;99.90;;;;;;7397804;19;20218;-82
2023/10/31 11:37:26;;;;;;;1.58;1.48;;;14.90;99.90;;;;;;7396738;19;20131;-81
2023/10/31 11:40:15;;;;;;;0.80;0.60;;;14.80;99.90;;;;;;7399398;19;20469;-80
2023/10/31 11:42:41;;;;;;;0.32;0.30;;;14.80;99.90;;;;;;7397049;19;20151;-80
2023/10/31 11:45:11;;;;;;;2.40;1.20;;;14.70;99.90;;;;;;7397211;19;20202;-80
2023/10/31 11:47:46;;;;;;;1.58;0.90;;;14.70;99.90;;;;;;7395520;19;20210;-83
2023/10/31 11:50:12;;;;;;;0.70;0.30;;;14.80;99.90;;;;;;7396937;19;20134;-82
2023/10/31 11:52:39;;;;;;;0.68;0.30;;;14.70;99.90;;;;;;7396238;19;20154;-81
2023/10/31 11:55:10;;;;;;;0.82;0.43;;;14.60;99.90;;;;;;7397235;19;20130;-81
2023/10/31 11:57:36;;;;;;;0.43;0.40;;;14.60;99.90;;;;;;7398428;19;20198;-81
2023/10/31 12:00:03;;;;;;;0.47;0.45;;;14.80;99.90;;;;;;7397651;19;20138;-81
2023/10/31 12:02:30;;;;;;;0.25;0.25;;;14.90;99.90;;;;;;7398817;19;20143;-82
2023/10/31 12:05:14;;;;;;;1.20;0.80;;;15.00;99.90;;;;;;7400825;19;20167;-82
2023/10/31 12:07:46;;;;;;;9.05;5.00;;;14.90;99.90;;;;;;7396648;19;20142;-83
2023/10/31 12:10:22;;;;;;;15.15;6.57;;;14.70;99.90;;;;;;7400721;19;20138;-81
2023/10/31 12:12:47;;;;;;;3.10;1.33;;;14.80;99.90;;;;;;7398498;19;20151;-82
2023/10/31 12:15:14;;;;;;;2.38;0.75;;;14.90;99.90;;;;;;7399678;19;20143;-84
2023/10/31 12:17:40;;;;;;;2.42;0.70;;;14.80;99.90;;;;;;7396494;19;20168;-82
2023/10/31 12:20:08;;;;;;;0.45;0.45;;;14.80;99.90;;;;;;7396265;19;20166;-82
2023/10/31 12:22:37;;;;;;;0.45;0.40;;;14.80;99.90;;;;;;7394242;19;20143;-81
2023/10/31 12:25:04;;;;;;;0.45;0.20;;;14.70;99.90;;;;;;7394586;19;20131;-82
2023/10/31 12:27:46;;;;;;;0.20;0.20;;;14.90;99.90;;;;;;7396146;19;20134;-81
2023/10/31 12:30:13;;;;;;;0.40;0.40;;;14.90;99.90;;;;;;7395826;19;20177;-82
2023/10/31 12:32:43;;;;;;;0.20;0.20;;;15.10;99.90;;;;;;7396351;19;20150;-83
2023/10/31 12:35:18;;;;;;;0.40;0.40;;;15.10;99.90;;;;;;7396792;19;20170;-83
2023/10/31 12:37:49;;;;;;;2.72;1.58;;;15.10;99.90;;;;;;7395043;19;20217;-82
2023/10/31 12:40:18;;;;;;;2.20;0.50;;;15.00;99.90;;;;;;7396477;19;20606;-82
2023/10/31 12:42:45;;;;;;;0.20;0.20;;;15.10;99.90;;;;;;7395332;19;20180;-82
2023/10/31 12:45:12;;;;;;;0.30;0.30;;;15.00;99.90;;;;;;7397210;19;20157;-82
2023/10/31 12:47:38;;;;;;;0.65;0.55;;;15.00;99.90;;;;;;7395197;19;20131;-82